Latest Weather Observations for Whyalla

IDS60801

Issued at 12:01 pm CDT Sunday 22 January 2017 (issued every 30 minutes, with the page automatically refreshed every 10 minutes)

About weather observations | Map of weather stations | Latest weather observations for SA | Other Formats
Station Details ID: 018120 Name: WHYALLA AERO Lat: -33.05 Lon: 137.52 Height: 9.3 m
Data from the previous 72 hours. | See also: Recent months at Whyalla
Date/Time
CDT
Temp
°C
App
Temp
°C
Dew
Point
°C
Rel
Hum
%
Delta-T
°C
Wind Press
QNH
hPa
Press
MSL
hPa
Rain since
9am
mm
Dir  Spd
km/h
Gust
km/h
Spd
kts
Gust
kts
22/12:00pm 31.6 29.2 11.4 29 11.8 E 15 22 8 12 1010.3 1010.2 0.0
22/11:30am 30.8 28.1 11.7 31 11.1 E 17 26 9 14 1010.5 1010.4 0.0
22/11:00am 30.2 26.7 8.6 26 11.9 NNE 17 24 9 13 1011.0 1010.9 0.0
22/10:30am 28.8 27.1 10.0 31 10.6 NE 9 15 5 8 1011.4 1011.3 0.0
22/10:00am 27.7 25.7 10.0 33 9.9 NE 11 17 6 9 1011.8 1011.7 0.0
22/09:30am 25.7 26.5 14.8 51 6.5 ESE 4 9 2 5 1011.9 1011.8 0.0
22/09:00am 24.2 25.1 16.7 63 4.6 E 7 9 4 5 1011.8 1011.7 0.0
22/08:30am 22.9 25.5 17.6 72 3.3 CALM 0 0 0 0 1012.0 1011.9 0.0
22/08:00am 20.1 22.7 17.5 85 1.6 CALM 0 0 0 0 1011.8 1011.7 0.0
22/07:30am 18.8 21.2 16.9 89 1.1 CALM 0 0 0 0 1011.6 1011.5 0.0
22/07:00am 17.0 17.9 16.0 94 0.6 W 6 9 3 5 1011.5 1011.4 0.0
22/06:30am 16.5 17.1 15.7 95 0.5 WNW 7 11 4 6 1011.0 1010.9 0.0
22/06:00am 16.4 16.5 15.6 95 0.5 NW 9 11 5 6 1011.0 1010.9 0.0
22/05:30am 16.4 16.5 15.6 95 0.5 NW 9 9 5 5 1010.8 1010.7 0.0
22/05:00am 16.8 16.6 15.8 94 0.6 NW 11 13 6 7 1010.6 1010.5 0.0
22/04:30am 16.7 17.3 15.7 94 0.6 NW 7 9 4 5 1010.4 1010.3 0.0
22/04:00am 16.7 17.2 15.6 93 0.6 NW 7 9 4 5 1010.4 1010.3 0.0
22/03:30am 17.4 18.2 15.9 91 0.9 NW 6 9 3 5 1010.5 1010.4 0.0
22/03:00am 17.8 19.8 16.1 90 1.0 CALM 0 0 0 0 1010.5 1010.4 0.0
22/02:30am 18.4 19.5 16.6 89 1.1 SW 6 9 3 5 1010.6 1010.5 0.0
22/02:00am 19.1 20.4 17.1 88 1.2 WSW 6 9 3 5 1011.1 1011.0 0.0
22/01:30am 20.2 21.1 17.6 85 1.6 SSW 9 11 5 6 1011.2 1011.1 0.0
22/01:00am 20.7 21.7 17.7 83 1.8 SSW 9 13 5 7 1011.7 1011.6 0.0
22/12:30am 21.3 21.5 17.7 80 2.2 S 13 15 7 8 1011.9 1011.8 0.0
22/12:00am 22.0 21.5 17.8 77 2.6 S 17 24 9 13 1011.9 1011.8 0.0
 
Date/Time
CDT
Temp
°C
App
Temp
°C
Dew
Point
°C
Rel
Hum
%
Delta-T
°C
Wind Press
QNH
hPa
Press
MSL
hPa
Rain since
9am
mm
Dir  Spd
km/h
Gust
km/h
Spd
kts
Gust
kts
21/11:30pm 22.4 21.8 17.5 74 3.0 S 17 22 9 12 1012.1 1012.0 0.0
21/11:00pm 22.6 22.1 18.6 78 2.5 S 19 28 10 15 1012.1 1012.0 0.0
21/10:30pm 22.6 21.4 17.5 73 3.2 S 20 28 11 15 1012.0 1011.9 0.0
21/10:00pm 22.5 21.0 17.8 75 2.9 S 22 30 12 16 1012.1 1012.0 0.0
21/09:30pm 22.7 22.0 18.3 76 2.8 SSW 19 24 10 13 1012.0 1011.9 0.0
21/09:00pm 22.9 22.1 18.0 74 3.1 SSW 19 24 10 13 1011.7 1011.6 0.0
21/08:30pm 23.1 22.1 17.6 71 3.4 S 19 28 10 15 1011.5 1011.4 0.0
21/08:00pm 23.8 22.1 17.1 66 4.1 S 22 28 12 15 1011.3 1011.2 0.0
21/07:30pm 24.7 23.1 16.4 60 5.1 S 20 28 11 15 1011.0 1010.9 0.0
21/07:00pm 25.9 24.3 16.5 56 5.8 S 20 24 11 13 1010.7 1010.6 0.0
21/06:30pm 26.4 24.5 15.1 49 6.8 S 19 24 10 13 1010.4 1010.3 0.0
21/06:00pm 26.9 25.4 15.3 49 7.1 SSE 17 22 9 12 1010.4 1010.3 0.0
21/05:30pm 27.0 24.9 13.7 44 7.9 SSE 17 20 9 11 1010.6 1010.5 0.0
21/05:00pm 27.6 25.5 12.4 39 8.8 SSE 15 20 8 11 1010.9 1010.8 0.0
21/04:30pm 27.7 25.6 13.6 42 8.4 SSE 17 22 9 12 1011.1 1011.0 0.0
21/04:00pm 26.6 23.7 11.1 38 8.8 SE 17 22 9 12 1011.4 1011.3 0.0
21/03:30pm 27.5 25.5 10.2 34 9.7 ESE 11 19 6 10 1011.6 1011.5 0.0
21/03:00pm 27.2 25.0 10.8 36 9.3 ENE 13 19 7 10 1012.0 1011.9 0.0
21/02:30pm 26.5 24.4 11.0 38 8.8 E 13 24 7 13 1012.1 1012.0 0.0
21/02:00pm 25.6 23.4 12.1 43 7.7 ESE 15 22 8 12 1012.4 1012.3 0.0
21/01:30pm 25.4 23.4 12.6 45 7.4 SE 15 24 8 13 1012.8 1012.7 0.0
21/01:00pm 24.7 23.4 13.6 50 6.5 ESE 13 19 7 10 1013.1 1013.0 0.0
21/12:30pm 23.4 22.1 12.4 50 6.3 E 11 17 6 9 1013.3 1013.2 0.0
21/12:00pm 22.5 21.5 13.3 56 5.3 ESE 11 17 6 9 1013.5 1013.4 0.0
21/11:30am 21.9 21.1 14.0 61 4.6 ESE 11 17 6 9 1013.7 1013.6 0.0
21/11:00am 21.2 19.9 13.6 62 4.4 SE 13 20 7 11 1014.0 1013.9 0.0
21/10:30am 21.1 19.8 12.5 58 4.9 ESE 11 19 6 10 1014.2 1014.1 0.0
21/10:00am 20.2 19.3 12.7 62 4.2 ESE 9 15 5 8 1014.3 1014.2 0.0
21/09:30am 19.5 18.3 13.9 70 3.2 SSE 13 17 7 9 1014.3 1014.2 0.0
21/09:00am 19.2 17.5 13.6 70 3.2 SE 15 24 8 13 1014.5 1014.4 0.2
21/08:30am 18.9 16.8 13.5 71 3.1 ESE 17 22 9 12 1014.2 1014.1 0.2
21/08:00am 17.8 15.0 12.7 72 2.8 SE 19 26 10 14 1014.1 1014.0 0.2
21/07:30am 17.3 14.8 12.2 72 2.8 SE 17 24 9 13 1013.8 1013.7 0.2
21/07:00am 16.9 13.9 11.8 72 2.8 SE 19 26 10 14 1013.6 1013.5 0.2
21/06:30am 16.7 14.3 12.7 77 2.2 SE 17 24 9 13 1013.2 1013.1 0.2
21/06:00am 17.1 14.3 12.6 75 2.5 SE 19 28 10 15 1012.9 1012.8 0.2
21/05:30am 17.4 14.7 12.9 75 2.5 SE 19 26 10 14 1012.6 1012.5 0.2
21/05:00am 17.8 15.5 12.9 73 2.7 SE 17 26 9 14 1012.5 1012.4 0.2
21/04:30am 18.2 15.4 12.6 70 3.1 SSE 19 30 10 16 1012.3 1012.2 0.2
21/04:00am 18.3 15.3 12.7 70 3.1 SSE 20 30 11 16 1012.2 1012.1 0.2
21/03:30am 18.4 15.8 13.3 72 2.9 SSE 19 28 10 15 1012.1 1012.0 0.2
21/03:00am 18.8 16.1 13.4 71 3.1 SSE 20 30 11 16 1012.1 1012.0 0.2
21/02:30am 19.1 16.6 13.5 70 3.2 SSE 19 28 10 15 1011.9 1011.8 0.2
21/02:00am 19.1 17.0 13.5 70 3.2 SSE 17 24 9 13 1011.9 1011.8 0.2
21/01:30am 19.3 16.9 13.9 71 3.1 SE 19 30 10 16 1011.9 1011.8 0.2
21/01:00am 19.5 17.2 14.1 71 3.1 SSE 19 24 10 13 1012.1 1012.0 0.2
21/12:30am 19.5 17.6 14.1 71 3.1 SSE 17 24 9 13 1012.4 1012.3 0.2
21/12:00am 19.5 17.6 14.3 72 3.0 SSE 17 24 9 13 1012.1 1012.0 0.2
 
Date/Time
CDT
Temp
°C
App
Temp
°C
Dew
Point
°C
Rel
Hum
%
Delta-T
°C
Wind Press
QNH
hPa
Press
MSL
hPa
Rain since
9am
mm
Dir  Spd
km/h
Gust
km/h
Spd
kts
Gust
kts
20/11:30pm 19.7 17.4 14.1 70 3.2 SSE 19 24 10 13 1012.0 1011.9 0.2
20/11:00pm 19.8 17.5 14.0 69 3.3 SSE 19 26 10 14 1011.5 1011.4 0.2
20/10:30pm 20.2 17.8 13.9 67 3.6 SSE 19 28 10 15 1011.1 1011.0 0.2
20/10:00pm 20.4 17.8 15.8 75 2.7 S 24 32 13 17 1010.8 1010.7 0.2
20/09:30pm 20.2 17.6 15.8 76 2.6 S 24 33 13 18 1010.5 1010.4 0.2
20/09:00pm 20.2 16.7 15.4 74 2.8 S 28 37 15 20 1010.1 1010.0 0.2
20/08:30pm 20.3 16.7 15.3 73 3.0 S 28 37 15 20 1009.9 1009.8 0.2
20/08:00pm 20.9 16.9 15.2 70 3.4 S 30 39 16 21 1009.4 1009.3 0.2
20/07:30pm 21.4 17.3 14.8 66 3.9 S 30 39 16 21 1009.0 1008.9 0.2
20/07:00pm 21.9 16.9 15.0 65 4.1 S 35 46 19 25 1008.7 1008.6 0.2
20/06:30pm 22.3 18.2 14.9 63 4.4 S 30 41 16 22 1008.3 1008.2 0.2
20/06:00pm 22.3 17.6 14.4 61 4.6 S 32 44 17 24 1008.2 1008.1 0.2
20/05:30pm 22.4 17.9 14.8 62 4.5 S 32 43 17 23 1008.4 1008.3 0.2
20/05:00pm 22.7 18.8 14.5 60 4.8 S 28 37 15 20 1008.5 1008.4 0.2
20/04:30pm 22.4 17.7 14.3 60 4.8 SSW 32 39 17 21 1008.5 1008.4 0.2
20/04:00pm 22.9 18.4 15.0 61 4.7 S 32 43 17 23 1008.3 1008.2 0.2
20/03:30pm 23.1 19.5 16.2 65 4.2 S 30 41 16 22 1008.5 1008.4 0.2
20/03:00pm 22.1 18.6 15.5 66 4.0 S 28 37 15 20 1008.4 1008.3 0.2
20/02:30pm 22.2 19.2 15.8 67 3.9 S 26 41 14 22 1008.4 1008.3 0.2
20/02:00pm 21.0 17.6 15.8 72 3.1 SSE 28 39 15 21 1008.3 1008.2 0.2
20/01:30pm 21.7 17.9 16.6 73 3.1 S 32 43 17 23 1008.3 1008.2 0.2
20/01:00pm 22.0 17.8 16.3 70 3.5 S 33 46 18 25 1008.1 1008.0 0.2
20/12:30pm 21.1 17.2 16.5 75 2.8 S 32 43 17 23 1007.9 1007.8 0.2
20/12:00pm 21.0 17.6 17.6 81 2.1 S 32 44 17 24 1007.7 1007.6 0.2
20/11:30am 21.5 16.4 17.7 79 2.4 S 41 50 22 27 1007.2 1007.1 0.2
20/11:20am 21.3 17.7 17.1 77 2.6 SSW 32 50 17 27 1007.3 1007.2 0.2
20/11:01am 19.9 16.3 17.1 84 1.7 S 32 43 17 23 1007.3 1007.2 0.2
20/11:00am 20.0 16.6 17.8 87 1.4 S 32 43 17 23 1007.3 1007.2 0.2
20/10:30am 19.3 15.7 17.6 90 1.0 SSW 33 43 18 23 1006.7 1006.6 0.0
20/10:00am 19.5 17.1 18.2 92 0.8 SSW 28 37 15 20 1006.4 1006.3 0.0
20/09:45am 19.4 15.9 17.5 89 1.2 SSW 32 43 17 23 1006.1 1006.0 0.0
20/09:30am 19.7 17.0 17.5 87 1.3 SSW 28 37 15 20 1005.9 1005.8 0.0
20/09:00am 19.5 15.5 17.6 89 1.2 SSW 35 44 19 24 1005.4 1005.3 8.6
20/08:30am 20.0 17.0 17.8 87 1.4 SSW 30 41 16 22 1004.8 1004.7 8.6
20/08:00am 19.7 16.2 17.8 89 1.2 SW 33 43 18 23 1004.4 1004.3 8.6
20/07:37am 20.0 16.8 18.1 89 1.2 SW 32 44 17 24 1003.9 1003.8 8.6
20/07:30am 20.1 17.3 18.1 88 1.2 SW 30 44 16 24 1003.8 1003.7 8.6
20/07:25am 20.2 17.7 18.1 88 1.3 SW 28 43 15 23 1003.8 1003.7 8.6
20/07:00am 20.6 18.4 18.7 89 1.2 SW 28 37 15 20 1002.9 1002.8 8.6
20/06:30am 20.8 19.7 19.5 92 0.8 SW 24 30 13 16 1002.1 1002.0 8.6
20/06:00am 20.8 20.2 19.8 94 0.6 SW 22 30 12 16 1001.8 1001.7 8.6
20/05:54am 20.8 19.9 19.8 94 0.6 SW 24 32 13 17 1001.8 1001.7 8.6
20/05:30am 20.9 21.3 19.9 94 0.6 SW 17 20 9 11 1001.6 1001.5 8.6
20/05:00am 20.9 22.8 19.7 93 0.8 WSW 9 15 5 8 1000.8 1000.7 8.6
20/04:30am 20.9 23.1 19.6 92 0.8 W 7 11 4 6 1000.2 1000.1 8.6
20/04:00am 20.9 22.8 19.7 93 0.8 WSW 9 11 5 6 1000.2 1000.1 8.6
20/03:47am 20.8 22.2 19.6 93 0.8 WSW 11 15 6 8 1000.4 1000.3 8.6
20/03:30am 20.7 21.7 19.5 93 0.8 WSW 13 19 7 10 1000.3 1000.2 8.6
20/03:20am 20.7 21.7 19.5 93 0.8 WSW 13 19 7 10 1000.2 1000.1 8.6
20/03:00am 21.0 23.3 19.8 93 0.8 SSW 7 11 4 6 999.6 999.5 8.6
20/02:56am 21.1 23.1 19.9 93 0.8 SSW 9 13 5 7 999.4 999.3 8.6
20/02:30am 20.8 21.7 19.3 91 1.0 SSW 13 19 7 10 999.2 999.1 8.6
20/02:27am 20.9 21.6 19.6 92 0.8 SSW 15 19 8 10 999.4 999.3 8.6
20/02:00am 21.1 20.9 19.7 92 0.9 SSW 20 30 11 16 999.8 999.7 8.6
20/01:57am 21.1 20.5 19.7 92 0.9 SSW 22 30 12 16 999.9 999.8 8.6
20/01:30am 21.3 19.4 20.1 93 0.8 SSW 30 44 16 24 1000.2 1000.1 8.6
20/01:01am 22.0 19.6 21.0 94 0.7 SSW 35 46 19 25 1000.4 1000.3 8.6
20/01:00am 22.0 19.5 20.8 93 0.8 SSW 35 46 19 25 1000.3 1000.2 8.6
20/12:53am 22.7 22.3 21.0 90 1.1 SW 24 46 13 25 1000.3 1000.2 8.6
20/12:30am 25.7 28.9 25.0 96 0.5 W 17 22 9 12 1000.2 1000.1 8.4
20/12:00am 25.7 30.4 25.0 96 0.5 WNW 9 13 5 7 999.5 999.4 8.4
 
Date/Time
CDT
Temp
°C
App
Temp
°C
Dew
Point
°C
Rel
Hum
%
Delta-T
°C
Wind Press
QNH
hPa
Press
MSL
hPa
Rain since
9am
mm
Dir  Spd
km/h
Gust
km/h
Spd
kts
Gust
kts
19/11:30pm 25.4 29.5 24.5 95 0.6 NNE 11 13 6 7 999.5 999.4 8.4
19/11:00pm 25.5 29.2 24.6 95 0.6 NNE 13 19 7 10 999.7 999.6 8.4
19/10:30pm 25.7 30.3 24.8 95 0.6 N 9 15 5 8 999.1 999.0 8.4
19/10:00pm 25.1 29.4 24.2 95 0.6 ENE 9 13 5 7 998.8 998.7 8.4
19/09:30pm 25.1 28.6 24.2 95 0.6 NNW 13 17 7 9 999.9 999.8 7.8
19/09:00pm 24.8 26.9 24.1 96 0.5 NW 20 30 11 16 1000.6 1000.5 7.8
19/08:45pm 25.1 24.7 23.7 92 1.0 WNW 32 44 17 24 1002.1 1002.0 5.0
19/08:30pm 25.1 22.4 23.7 92 1.0 W 44 63 24 34 1000.9 1000.8 3.0
19/08:06pm 26.3 22.6 24.0 87 1.6 W 50 85 27 46 1000.1 1000.0 0.2
19/08:00pm 27.9 25.1 23.1 75 3.3 W 43 85 23 46 999.7 999.6 0.0
19/07:57pm 29.4 28.2 22.6 67 4.6 W 33 85 18 46 999.5 999.4 0.0
19/07:56pm 30.2 30.1 22.9 65 5.0 W 28 57 15 31 999.7 999.6 0.0
19/07:55pm 30.7 31.1 23.1 64 5.2 W 26 44 14 24 999.6 999.5 0.0
19/07:30pm 34.3 34.4 19.9 42 9.6 WNW 19 24 10 13 997.7 997.6 0.0
19/07:00pm 35.9 35.9 20.2 40 10.5 NW 20 32 11 17 997.1 997.0 0.0
19/06:30pm 37.0 35.0 19.9 36 11.5 NNW 30 39 16 21 996.9 996.8 0.0
19/06:00pm 38.3 35.7 18.7 31 13.0 NNW 30 41 16 22 997.0 996.9 0.0
19/05:49pm 38.6 36.5 18.9 31 13.1 NNW 28 37 15 20 996.7 996.6 0.0
19/05:43pm 38.6 36.5 18.9 31 13.1 NNW 28 35 15 19 996.7 996.6 0.0
19/05:30pm 38.8 37.0 19.6 32 12.9 NNW 28 37 15 20 997.0 996.9 0.0
19/05:00pm 39.5 37.5 19.2 30 13.6 N 28 39 15 21 997.1 997.0 0.0
19/04:30pm 40.7 38.6 19.7 29 14.2 NNW 30 44 16 24 997.8 997.7 0.0
19/04:19pm 39.7 40.0 20.4 32 13.1 NNW 19 28 10 15 997.9 997.8 0.0
19/04:00pm 40.3 38.8 19.4 30 14.0 N 26 44 14 24 998.3 998.2 0.0
19/03:57pm 41.3 40.6 20.2 29 14.3 N 24 35 13 19 998.4 998.3 0.0
19/03:30pm 36.2 37.4 20.0 38 10.9 E 13 20 7 11 999.2 999.1 0.0
19/03:00pm 35.6 35.3 19.1 38 10.9 ESE 19 28 10 15 1000.1 1000.0 0.0
19/02:30pm 35.1 35.1 18.2 36 11.0 ESE 15 19 8 10 1001.4 1001.3 0.0
19/02:00pm 31.9 31.7 18.5 45 8.7 SE 17 20 9 11 1002.5 1002.4 0.0
19/01:30pm 33.0 32.5 16.8 38 10.3 ESE 15 19 8 10 1003.3 1003.2 0.0
19/01:00pm 32.8 32.7 17.8 40 9.6 SE 15 20 8 11 1004.0 1003.9 0.0
19/12:30pm 31.0 31.7 18.0 45 8.4 SE 11 19 6 10 1004.7 1004.6 0.0

Other Formats:

Comma delimited format used in spreadsheet applications
http://www.bom.gov.au/fwo/IDS60801/IDS60801.95664.axf

JavaScript Object Notation format (JSON) in row-major order
http://www.bom.gov.au/fwo/IDS60801/IDS60801.95664.json